createdAt,value
2018-05-10T00:01:25.403Z,58.27
2018-05-10T00:03:52.937Z,58.39
2018-05-10T00:06:20.469Z,58.45
2018-05-10T00:08:47.983Z,58.53
2018-05-10T00:11:15.508Z,58.44
2018-05-10T00:13:43.074Z,58.66
2018-05-10T00:16:10.605Z,58.70
2018-05-10T00:18:38.206Z,58.67
2018-05-10T00:21:05.859Z,58.67
2018-05-10T00:23:33.373Z,58.33
2018-05-10T00:26:00.940Z,58.57
2018-05-10T00:28:28.740Z,58.98
2018-05-10T00:30:56.422Z,58.69
2018-05-10T00:33:23.956Z,59.25
2018-05-10T00:35:51.498Z,59.00
2018-05-10T00:38:19.215Z,59.27
2018-05-10T00:40:46.980Z,59.22
2018-05-10T00:43:14.542Z,59.04
2018-05-10T00:45:42.139Z,59.58
2018-05-10T00:48:09.671Z,59.49
2018-05-10T00:50:37.204Z,59.13
2018-05-10T00:53:04.715Z,59.25
2018-05-10T00:55:32.239Z,59.47
2018-05-10T00:57:59.816Z,59.61
2018-05-10T01:00:27.292Z,59.42
2018-05-10T01:02:54.797Z,59.63
2018-05-10T01:05:22.657Z,59.61
2018-05-10T01:07:50.291Z,59.79
2018-05-10T01:10:17.903Z,59.71
2018-05-10T01:12:45.678Z,59.92
2018-05-10T01:15:13.259Z,60.09
2018-05-10T01:17:40.783Z,60.09
2018-05-10T01:20:08.278Z,60.12
2018-05-10T01:22:36.112Z,60.13
2018-05-10T01:25:03.627Z,59.92
2018-05-10T01:27:31.187Z,60.15
2018-05-10T01:29:58.787Z,60.30
2018-05-10T01:32:26.383Z,60.10
2018-05-10T01:35:06.190Z,60.10
2018-05-10T01:37:33.714Z,59.69
2018-05-10T01:40:01.256Z,59.95
2018-05-10T01:42:28.807Z,59.87
2018-05-10T01:44:56.329Z,59.90
2018-05-10T01:47:23.885Z,60.12
2018-05-10T01:49:51.413Z,60.05
2018-05-10T01:52:18.942Z,60.21
2018-05-10T01:54:46.471Z,60.46
2018-05-10T01:57:14.030Z,60.39
2018-05-10T01:59:41.565Z,60.52
2018-05-10T02:02:09.087Z,60.58
2018-05-10T02:04:36.627Z,60.51
2018-05-10T02:07:04.300Z,60.56
2018-05-10T02:09:31.806Z,60.49
2018-05-10T02:11:59.361Z,60.62
2018-05-10T02:14:26.919Z,60.67
2018-05-10T02:16:54.487Z,60.61
2018-05-10T02:19:22.017Z,61.03
2018-05-10T02:21:49.573Z,61.11
2018-05-10T02:24:17.090Z,61.04
2018-05-10T02:26:44.602Z,60.95
2018-05-10T02:29:12.136Z,61.12
2018-05-10T02:31:39.782Z,61.34
2018-05-10T02:34:07.302Z,61.52
2018-05-10T02:36:34.861Z,61.47
2018-05-10T02:39:02.436Z,61.59
2018-05-10T02:41:29.984Z,61.46
2018-05-10T02:43:57.505Z,61.35
2018-05-10T02:46:25.137Z,61.22
2018-05-10T02:48:52.680Z,61.34
2018-05-10T02:51:20.196Z,61.47
2018-05-10T02:53:47.699Z,61.21
2018-05-10T02:56:15.238Z,61.30
2018-05-10T02:58:42.750Z,61.32
2018-05-10T03:01:10.283Z,61.57
2018-05-10T03:03:37.815Z,61.56
2018-05-10T03:06:05.611Z,61.24
2018-05-10T03:08:33.132Z,61.18
2018-05-10T03:11:00.654Z,61.50
2018-05-10T03:13:28.260Z,61.45
2018-05-10T03:15:55.815Z,61.49
2018-05-10T03:18:23.637Z,61.71
2018-05-10T03:20:51.153Z,62.01
2018-05-10T03:23:18.694Z,61.87
2018-05-10T03:25:46.236Z,62.01
2018-05-10T03:28:14.086Z,62.04
2018-05-10T03:30:41.601Z,62.09
2018-05-10T03:33:09.164Z,62.37
2018-05-10T03:35:36.674Z,62.33
2018-05-10T03:38:04.348Z,62.38
2018-05-10T03:40:32.006Z,62.43
2018-05-10T03:42:59.497Z,62.02
2018-05-10T03:45:27.031Z,62.11
2018-05-10T03:47:54.574Z,62.33
2018-05-10T03:50:22.123Z,62.25
2018-05-10T03:52:49.680Z,62.33
2018-05-10T03:55:17.214Z,62.43
2018-05-10T03:57:44.759Z,62.31
2018-05-10T04:00:12.286Z,62.44
2018-05-10T04:06:05.634Z,62.72
2018-05-10T04:08:44.913Z,62.76
2018-05-10T04:11:31.207Z,63.03
2018-05-10T04:13:58.818Z,62.76
2018-05-10T04:16:26.347Z,62.90
2018-05-10T04:18:53.889Z,63.02
2018-05-10T04:21:21.740Z,62.71
2018-05-10T04:23:49.282Z,62.85
2018-05-10T04:26:16.798Z,62.63
2018-05-10T04:28:44.333Z,62.52
2018-05-10T04:31:11.847Z,62.38
2018-05-10T04:33:39.392Z,62.24
2018-05-10T04:36:06.928Z,62.51
2018-05-10T04:38:34.563Z,62.67
2018-05-10T04:41:02.083Z,62.63
2018-05-10T04:43:29.639Z,62.56
2018-05-10T04:45:57.164Z,62.64
2018-05-10T04:48:24.951Z,62.69
2018-05-10T04:50:52.481Z,62.89
2018-05-10T04:53:20.016Z,62.77
2018-05-10T04:55:47.548Z,62.57
2018-05-10T04:58:15.092Z,62.21
2018-05-10T05:00:42.620Z,62.48
2018-05-10T05:03:10.157Z,62.58
2018-05-10T05:05:37.660Z,62.81
2018-05-10T05:08:05.205Z,62.33
2018-05-10T05:10:32.785Z,62.22
2018-05-10T05:13:00.379Z,62.10
2018-05-10T05:15:27.898Z,62.06
2018-05-10T05:17:55.441Z,62.34
2018-05-10T05:20:23.343Z,62.15
2018-05-10T05:22:50.875Z,61.72
2018-05-10T05:25:18.393Z,61.69
2018-05-10T05:27:45.925Z,61.69
2018-05-10T05:30:13.454Z,62.02
2018-05-10T05:32:41.078Z,62.25
2018-05-10T05:35:08.623Z,61.92
2018-05-10T05:37:36.155Z,61.66
2018-05-10T05:40:03.710Z,61.36
2018-05-10T05:42:31.319Z,61.62
2018-05-10T05:44:58.861Z,61.45
2018-05-10T05:47:26.403Z,61.34
2018-05-10T05:49:53.960Z,61.10
2018-05-10T05:52:21.461Z,61.63
2018-05-10T05:54:49.052Z,61.79
2018-05-10T05:57:16.558Z,61.37
2018-05-10T05:59:44.112Z,61.54
2018-05-10T06:02:11.649Z,61.54
2018-05-10T06:04:39.211Z,61.57
2018-05-10T06:07:07.058Z,61.65
2018-05-10T06:09:34.606Z,61.52
2018-05-10T06:12:02.158Z,62.05
2018-05-10T06:14:29.768Z,61.85
2018-05-10T06:16:57.295Z,61.75
2018-05-10T06:19:24.837Z,61.83
2018-05-10T06:21:52.623Z,61.83
2018-05-10T06:24:20.163Z,62.70
2018-05-10T06:26:48.736Z,62.71
2018-05-10T06:29:16.279Z,62.78
2018-05-10T06:31:43.795Z,62.09
2018-05-10T06:34:11.339Z,62.04
2018-05-10T06:36:38.855Z,62.15
2018-05-10T06:39:06.594Z,61.57
2018-05-10T06:41:36.860Z,61.56
2018-05-10T06:44:04.362Z,61.53
2018-05-10T06:46:31.878Z,60.91
2018-05-10T06:48:59.410Z,60.60
2018-05-10T06:51:26.924Z,60.56
2018-05-10T06:53:54.566Z,60.94
2018-05-10T06:56:22.155Z,61.07
2018-05-10T06:58:49.681Z,61.03
2018-05-10T07:01:17.246Z,60.68
2018-05-10T07:03:44.853Z,60.73
2018-05-10T07:06:12.370Z,60.87
2018-05-10T07:08:39.912Z,61.44
2018-05-10T07:11:07.728Z,61.03
2018-05-10T07:13:35.295Z,60.82
2018-05-10T07:16:02.818Z,61.23
2018-05-10T07:18:30.378Z,60.26
2018-05-10T07:20:57.956Z,60.67
2018-05-10T07:23:25.488Z,60.76
2018-05-10T07:25:53.050Z,60.88
2018-05-10T07:28:20.581Z,60.27
2018-05-10T07:30:48.444Z,59.92
2018-05-10T07:33:15.970Z,58.95
2018-05-10T07:35:43.489Z,59.54
2018-05-10T07:38:11.053Z,59.35
2018-05-10T07:40:38.612Z,58.79
2018-05-10T07:43:06.175Z,58.06
2018-05-10T07:45:33.724Z,56.84
2018-05-10T07:48:01.269Z,54.51
2018-05-10T07:50:28.819Z,54.80
2018-05-10T07:52:56.351Z,55.77
2018-05-10T07:55:23.937Z,56.61
2018-05-10T07:57:51.498Z,56.54
2018-05-10T08:00:19.027Z,55.69
2018-05-10T08:02:46.582Z,54.70
2018-05-10T08:05:14.160Z,53.17
2018-05-10T08:07:41.758Z,52.18
2018-05-10T08:10:09.352Z,51.03
2018-05-10T08:12:44.505Z,49.70
2018-05-10T08:15:12.046Z,48.76
2018-05-10T08:17:39.619Z,47.84
2018-05-10T08:20:07.195Z,46.88
2018-05-10T08:22:34.737Z,45.90
2018-05-10T08:25:02.356Z,45.31
2018-05-10T08:27:52.663Z,43.85
2018-05-10T08:30:20.258Z,41.71
2018-05-10T08:32:47.795Z,40.07
2018-05-10T08:35:15.659Z,39.12
2018-05-10T08:37:44.566Z,38.29
2018-05-10T08:40:12.147Z,37.32
2018-05-10T08:42:39.657Z,37.05
2018-05-10T08:45:07.281Z,37.87
2018-05-10T08:47:34.843Z,37.09
2018-05-10T08:50:02.450Z,35.96
2018-05-10T08:52:30.286Z,36.25
2018-05-10T08:54:59.374Z,37.19
2018-05-10T08:57:26.895Z,36.70
2018-05-10T08:59:54.563Z,36.18
2018-05-10T09:02:22.092Z,35.96
2018-05-10T09:04:49.745Z,36.42
2018-05-10T09:07:17.324Z,35.72
2018-05-10T09:09:44.847Z,35.74
2018-05-10T09:12:12.485Z,35.57
2018-05-10T09:14:40.177Z,34.73
2018-05-10T09:17:08.056Z,34.98
2018-05-10T09:19:35.579Z,34.75
2018-05-10T09:22:03.108Z,35.35
2018-05-10T09:24:30.627Z,36.26
2018-05-10T09:26:58.218Z,35.08
2018-05-10T09:29:25.763Z,35.44
2018-05-10T09:31:54.479Z,35.54
2018-05-10T09:34:22.006Z,36.98
2018-05-10T09:36:49.574Z,39.36
2018-05-10T09:39:19.317Z,39.16
2018-05-10T09:41:52.487Z,39.29
2018-05-10T09:44:20.023Z,39.17
2018-05-10T09:46:47.613Z,40.40
2018-05-10T09:49:15.241Z,38.96
2018-05-10T09:51:42.809Z,39.11
2018-05-10T09:54:10.414Z,39.80
2018-05-10T09:56:38.343Z,40.42
2018-05-10T09:59:05.878Z,39.27
2018-05-10T10:01:33.807Z,39.85
2018-05-10T10:04:01.383Z,40.49
2018-05-10T10:06:28.927Z,39.26
2018-05-10T10:08:56.970Z,38.43
2018-05-10T10:11:24.559Z,38.92
2018-05-10T10:13:52.533Z,39.29
2018-05-10T10:16:20.120Z,39.49
2018-05-10T10:18:47.629Z,38.36
2018-05-10T10:21:15.379Z,38.22
2018-05-10T10:23:43.021Z,38.65
2018-05-10T10:26:10.578Z,38.09
2018-05-10T10:28:38.111Z,38.74
2018-05-10T10:31:05.811Z,38.50
2018-05-10T10:33:33.588Z,36.73
2018-05-10T10:36:01.147Z,37.64
2018-05-10T10:38:28.833Z,37.06
2018-05-10T10:40:56.398Z,37.28
2018-05-10T10:43:23.921Z,36.96
2018-05-10T10:45:51.539Z,37.14
2018-05-10T10:48:19.050Z,37.88
2018-05-10T10:50:46.568Z,36.83
2018-05-10T10:53:14.478Z,38.19
2018-05-10T10:55:42.040Z,38.38
2018-05-10T10:58:09.722Z,37.62
2018-05-10T11:00:37.327Z,37.91
2018-05-10T11:03:04.954Z,37.21
2018-05-10T11:05:32.536Z,36.97
2018-05-10T11:08:00.139Z,37.61
2018-05-10T11:10:27.661Z,38.22
2018-05-10T11:12:55.692Z,37.74
2018-05-10T11:15:23.268Z,35.79
2018-05-10T11:17:51.048Z,36.08
2018-05-10T11:20:23.255Z,35.39
2018-05-10T11:22:52.002Z,35.11
2018-05-10T11:25:23.980Z,34.08
2018-05-10T11:27:53.917Z,34.02
2018-05-10T11:30:24.509Z,33.58
2018-05-10T11:32:52.188Z,34.78
2018-05-10T11:35:20.374Z,35.45
2018-05-10T11:37:48.258Z,35.93
2018-05-10T11:40:15.948Z,36.22
2018-05-10T11:42:43.832Z,36.91
2018-05-10T11:45:13.605Z,37.41
2018-05-10T11:47:41.227Z,37.77
2018-05-10T11:50:08.812Z,37.03
2018-05-10T11:52:36.366Z,35.52
2018-05-10T11:55:03.894Z,33.97
2018-05-10T11:57:31.430Z,34.50
2018-05-10T11:59:59.045Z,32.95
2018-05-10T12:02:26.605Z,29.80
2018-05-10T12:04:54.424Z,29.11
2018-05-10T12:07:22.031Z,31.16
2018-05-10T12:09:49.564Z,32.60
2018-05-10T12:12:17.093Z,32.39
2018-05-10T12:14:44.650Z,31.52
2018-05-10T12:17:13.502Z,30.27
2018-05-10T12:19:41.140Z,29.56
2018-05-10T12:22:08.924Z,29.09
2018-05-10T12:24:36.456Z,27.85
2018-05-10T12:27:03.986Z,26.08
2018-05-10T12:29:31.782Z,25.90
2018-05-10T12:31:59.641Z,24.33
2018-05-10T12:34:27.414Z,26.14
2018-05-10T12:36:54.978Z,23.38
2018-05-10T12:39:22.843Z,21.67
2018-05-10T12:41:50.367Z,19.02
2018-05-10T12:44:18.269Z,17.93
2018-05-10T12:46:45.792Z,17.25
2018-05-10T12:49:13.347Z,16.88
2018-05-10T12:51:40.957Z,16.54
2018-05-10T12:54:08.686Z,17.87
2018-05-10T12:56:36.210Z,18.11
2018-05-10T12:59:04.020Z,18.31
2018-05-10T13:01:31.598Z,20.05
2018-05-10T13:03:59.157Z,20.27
2018-05-10T13:06:26.685Z,20.52
2018-05-10T13:08:54.292Z,21.96
2018-05-10T13:11:22.149Z,23.97
2018-05-10T13:13:49.690Z,26.03
2018-05-10T13:16:17.534Z,27.23
2018-05-10T13:18:45.075Z,28.74
2018-05-10T13:21:12.993Z,25.38
2018-05-10T13:23:40.526Z,22.13
2018-05-10T13:26:08.059Z,19.04
2018-05-10T13:28:35.701Z,17.16
2018-05-10T13:31:03.284Z,15.85
2018-05-10T13:33:30.832Z,15.04
2018-05-10T13:35:58.556Z,14.37
2018-05-10T13:38:26.127Z,13.70
2018-05-10T13:40:53.676Z,16.00
2018-05-10T13:43:21.251Z,17.30
2018-05-10T13:45:48.802Z,16.34
2018-05-10T13:48:16.829Z,16.63
2018-05-10T13:50:44.363Z,18.67
2018-05-10T13:53:11.891Z,19.79
2018-05-10T13:55:39.687Z,19.70
2018-05-10T13:58:07.212Z,22.02
2018-05-10T14:00:35.011Z,24.64
2018-05-10T14:03:02.566Z,26.54
2018-05-10T14:05:30.094Z,27.06
2018-05-10T14:07:57.993Z,27.33
2018-05-10T14:10:25.524Z,26.84
2018-05-10T14:12:53.091Z,25.03
2018-05-10T14:15:20.611Z,22.87
2018-05-10T14:17:48.917Z,21.99
2018-05-10T14:20:16.452Z,22.68
2018-05-10T14:22:44.012Z,21.37
2018-05-10T14:25:11.575Z,20.60
2018-05-10T14:27:39.098Z,20.67
2018-05-10T14:30:07.233Z,21.96
2018-05-10T14:32:34.787Z,21.37
2018-05-10T14:35:02.387Z,21.93
2018-05-10T14:37:29.906Z,23.14
2018-05-10T14:39:57.819Z,23.73
2018-05-10T14:42:25.383Z,24.00
2018-05-10T14:44:53.002Z,24.76
2018-05-10T14:47:20.587Z,25.98
2018-05-10T14:49:48.194Z,26.88
2018-05-10T14:52:15.729Z,26.93
2018-05-10T14:54:43.299Z,28.10
2018-05-10T14:57:10.803Z,28.32
2018-05-10T14:59:38.355Z,28.34
2018-05-10T15:02:05.877Z,29.14
2018-05-10T15:04:33.398Z,30.18
2018-05-10T15:07:00.932Z,30.73
2018-05-10T15:09:28.530Z,30.49
2018-05-10T15:11:56.077Z,30.89
2018-05-10T15:14:23.622Z,29.95
2018-05-10T15:16:51.195Z,30.17
2018-05-10T15:19:18.743Z,29.85
2018-05-10T15:21:46.263Z,30.81
2018-05-10T15:24:13.781Z,31.40
2018-05-10T15:26:41.571Z,31.25
2018-05-10T15:29:09.186Z,30.72
2018-05-10T15:31:36.743Z,31.69
2018-05-10T15:34:04.626Z,31.87
2018-05-10T15:36:32.164Z,31.81
2018-05-10T15:38:59.800Z,32.43
2018-05-10T15:41:27.328Z,33.17
2018-05-10T15:43:54.848Z,32.95
2018-05-10T15:46:22.376Z,46.94
2018-05-10T15:48:49.904Z,52.07
2018-05-10T15:51:17.431Z,51.77
2018-05-10T15:53:44.955Z,51.87
2018-05-10T15:56:13.478Z,53.28
2018-05-10T15:58:41.080Z,54.90
2018-05-10T16:01:08.703Z,58.81
2018-05-10T16:03:37.051Z,50.52
2018-05-10T16:06:04.619Z,55.14
2018-05-10T16:08:32.141Z,53.93
2018-05-10T16:10:59.683Z,52.16
2018-05-10T16:13:27.678Z,50.78
2018-05-10T16:15:55.472Z,49.38
2018-05-10T16:18:22.963Z,47.34
2018-05-10T16:20:50.530Z,45.88
2018-05-10T16:23:18.057Z,43.95
2018-05-10T16:25:45.640Z,43.57
2018-05-10T16:28:13.194Z,41.87
2018-05-10T16:30:40.763Z,41.66
2018-05-10T16:33:08.350Z,41.62
2018-05-10T16:35:35.952Z,42.35
2018-05-10T16:38:03.486Z,41.42
2018-05-10T16:40:31.083Z,42.06
2018-05-10T16:42:58.672Z,42.90
2018-05-10T16:45:26.232Z,43.49
2018-05-10T16:47:53.790Z,44.63
2018-05-10T16:50:23.759Z,44.28
2018-05-10T16:52:51.490Z,43.34
2018-05-10T16:55:19.037Z,42.94
2018-05-10T16:57:46.726Z,43.19
2018-05-10T17:00:14.329Z,43.66
2018-05-10T17:02:42.288Z,44.31
2018-05-10T17:05:09.901Z,46.11
2018-05-10T17:07:37.459Z,47.49
2018-05-10T17:10:05.390Z,49.53
2018-05-10T17:12:32.925Z,50.68
2018-05-10T17:15:00.503Z,51.31
2018-05-10T17:17:28.303Z,53.18
2018-05-10T17:19:56.673Z,52.38
2018-05-10T17:22:24.336Z,51.29
2018-05-10T17:24:51.891Z,49.87
2018-05-10T17:27:19.658Z,50.58
2018-05-10T17:29:47.190Z,48.57
2018-05-10T17:32:14.808Z,48.90
2018-05-10T17:34:42.364Z,48.33
2018-05-10T17:37:10.223Z,48.05
2018-05-10T17:39:37.812Z,48.35
2018-05-10T17:42:05.426Z,48.87
2018-05-10T17:44:33.029Z,49.06
2018-05-10T17:47:00.588Z,49.42
2018-05-10T17:49:28.136Z,50.61
2018-05-10T17:51:55.766Z,49.01
2018-05-10T17:54:23.820Z,48.25
2018-05-10T17:56:51.385Z,48.11
2018-05-10T17:59:18.944Z,49.86
2018-05-10T18:01:46.565Z,47.87
2018-05-10T18:04:14.183Z,47.18
2018-05-10T18:06:41.762Z,47.25
2018-05-10T18:09:09.391Z,47.89
2018-05-10T18:11:37.065Z,50.86
2018-05-10T18:14:04.741Z,56.44
2018-05-10T18:16:32.422Z,59.78
2018-05-10T18:18:59.954Z,64.31
2018-05-10T18:21:27.546Z,67.01
2018-05-10T18:23:55.091Z,68.93
2018-05-10T18:26:22.623Z,71.06
2018-05-10T18:28:50.191Z,71.23
2018-05-10T18:31:18.045Z,70.87
2018-05-10T18:33:45.608Z,70.86
2018-05-10T18:36:13.168Z,71.18
2018-05-10T18:38:40.738Z,71.73
2018-05-10T18:41:08.388Z,71.86
2018-05-10T18:43:35.953Z,72.57
2018-05-10T18:46:03.473Z,72.64
2018-05-10T18:48:31.233Z,72.69
2018-05-10T18:50:58.770Z,72.64
2018-05-10T18:53:26.308Z,72.66
2018-05-10T18:55:53.976Z,71.20
2018-05-10T18:58:21.701Z,71.87
2018-05-10T19:00:49.392Z,71.62
2018-05-10T19:03:17.264Z,70.44
2018-05-10T19:05:44.798Z,71.57
2018-05-10T19:08:12.483Z,73.96
2018-05-10T19:10:40.127Z,76.10
2018-05-10T19:13:07.677Z,76.60
2018-05-10T19:15:35.335Z,76.56
2018-05-10T19:18:03.039Z,76.51
2018-05-10T19:20:31.000Z,76.14
2018-05-10T19:22:58.551Z,74.99
2018-05-10T19:25:26.190Z,74.17
2018-05-10T19:27:53.850Z,73.92
2018-05-10T19:30:21.404Z,73.54
2018-05-10T19:32:48.976Z,72.80
2018-05-10T19:35:16.558Z,72.36
2018-05-10T19:37:44.131Z,71.93
2018-05-10T19:40:11.697Z,72.09
2018-05-10T19:42:39.243Z,72.32
2018-05-10T19:45:06.806Z,72.28
2018-05-10T19:47:34.431Z,71.91
2018-05-10T19:50:02.242Z,71.33
2018-05-10T19:52:30.062Z,71.97
2018-05-10T19:54:57.709Z,71.91
2018-05-10T19:57:25.238Z,71.91
2018-05-10T19:59:53.051Z,71.23
2018-05-10T20:02:20.679Z,70.97
2018-05-10T20:04:48.281Z,71.35
2018-05-10T20:07:15.908Z,71.60
2018-05-10T20:09:43.447Z,71.66
2018-05-10T20:12:11.003Z,71.04
2018-05-10T20:14:38.614Z,71.04
2018-05-10T20:17:06.141Z,71.12
2018-05-10T20:19:33.658Z,71.22
2018-05-10T20:22:01.172Z,70.96
2018-05-10T20:24:28.748Z,71.63
2018-05-10T20:26:56.283Z,72.11
2018-05-10T20:29:24.099Z,72.73
2018-05-10T20:31:51.601Z,73.52
2018-05-10T20:34:19.237Z,74.06
2018-05-10T20:36:46.769Z,74.52
2018-05-10T20:39:14.344Z,75.42
2018-05-10T20:41:41.891Z,76.66
2018-05-10T20:44:09.485Z,77.51
2018-05-10T20:46:37.023Z,77.16
2018-05-10T20:49:04.618Z,76.69
2018-05-10T20:51:32.226Z,76.32
2018-05-10T20:53:59.770Z,75.98
2018-05-10T20:56:27.273Z,75.29
2018-05-10T20:58:54.802Z,74.90
2018-05-10T21:01:22.323Z,74.71
2018-05-10T21:03:49.846Z,74.03
2018-05-10T21:06:17.529Z,73.57
2018-05-10T21:08:45.101Z,73.41
2018-05-10T21:11:12.631Z,73.52
2018-05-10T21:13:40.296Z,74.30
2018-05-10T21:16:08.090Z,76.43
2018-05-10T21:18:35.664Z,76.68
2018-05-10T21:21:03.165Z,76.93
2018-05-10T21:23:30.800Z,77.65
2018-05-10T21:25:58.391Z,77.76
2018-05-10T21:28:26.240Z,76.54
2018-05-10T21:30:53.756Z,76.24
2018-05-10T21:33:21.346Z,75.82
2018-05-10T21:35:48.977Z,74.99
2018-05-10T21:38:16.813Z,75.26
2018-05-10T21:40:44.412Z,74.76
2018-05-10T21:43:11.951Z,74.39
2018-05-10T21:45:39.451Z,74.65
2018-05-10T21:48:06.988Z,74.00
2018-05-10T21:50:34.572Z,73.32
2018-05-10T21:53:02.541Z,73.05
2018-05-10T21:55:30.493Z,73.28
2018-05-10T21:57:58.000Z,72.81
2018-05-10T22:00:25.554Z,72.05
2018-05-10T22:02:53.096Z,72.12
2018-05-10T22:05:20.680Z,72.15
2018-05-10T22:07:48.222Z,72.44
2018-05-10T22:10:15.868Z,72.06
2018-05-10T22:12:43.473Z,71.95
2018-05-10T22:15:11.309Z,72.24
2018-05-10T22:17:38.838Z,72.04
2018-05-10T22:20:08.076Z,71.86
2018-05-10T22:22:35.645Z,71.86
2018-05-10T22:25:03.175Z,71.79
2018-05-10T22:27:30.735Z,72.09
2018-05-10T22:29:58.406Z,72.17
2018-05-10T22:32:25.933Z,73.25
2018-05-10T22:34:53.465Z,72.95
2018-05-10T22:37:21.024Z,73.38
2018-05-10T22:39:48.636Z,74.20
2018-05-10T22:42:16.172Z,74.36
2018-05-10T22:44:43.724Z,73.69
2018-05-10T22:47:11.571Z,74.41
2018-05-10T22:49:39.392Z,73.92
2018-05-10T22:52:06.962Z,73.98
2018-05-10T22:54:34.613Z,73.38
2018-05-10T22:57:02.140Z,73.57
2018-05-10T22:59:29.692Z,73.03
2018-05-10T23:01:57.252Z,73.20
2018-05-10T23:04:24.796Z,72.93
2018-05-10T23:06:52.302Z,72.84
2018-05-10T23:09:19.894Z,72.90
2018-05-10T23:11:47.423Z,72.75
2018-05-10T23:14:14.948Z,72.73
2018-05-10T23:16:42.472Z,72.69
2018-05-10T23:19:10.071Z,72.51
2018-05-10T23:21:37.589Z,73.52
2018-05-10T23:24:05.450Z,73.02
2018-05-10T23:26:33.062Z,72.98
2018-05-10T23:29:00.613Z,72.95
2018-05-10T23:31:28.156Z,73.05
2018-05-10T23:33:55.668Z,72.79
2018-05-10T23:36:23.329Z,73.55
2018-05-10T23:38:50.921Z,74.04
2018-05-10T23:41:18.449Z,75.31
2018-05-10T23:43:46.022Z,74.73
2018-05-10T23:46:13.562Z,74.34
2018-05-10T23:48:41.091Z,74.00
2018-05-10T23:51:08.932Z,73.50
2018-05-10T23:53:36.446Z,72.74
2018-05-10T23:56:03.983Z,72.96
2018-05-10T23:58:31.499Z,72.75
